Camp Springs, Maryland
Current Conditions -  °F | °C
As of 7:58 PM on Saturday 25 Oct 2014 (Local Time) from KADW Reporting Station
Clear Clear  
Wind Chill: 61°   Ceiling: Unl
Heat Index: 61°   Visibility: 10mi
Dew Point: 42°   Wind: 12mph
Humidity: 48%   Direction: 220°SW
Pressure: 29.74"   Gusts: NA
Location:  38.8182°N, 76.9414°W
Report Text: KADW 252358Z AUTO 22010KT 10SM CLR 16/05 A2974 RMK AO2 SLP078 T01620053 10216 20159 56013 $
Loading
Personal Weather Stations






























Interactive Weather Map
Tropical Storm Tracking
New forecast layout! Learn more

10-Day Weather Forecast

Advertisements
Track Severe Weather on mobile